Terminal Aerodrome Forecast
Issued by NWS

Home | Current Version | Previous Version | Graphics & Text | Print | Product List | Glossary On
Versions: 1 2 3 4 5 6 7 8 9 10 11 12 13 14 15 16 17
000
FTUS41 KCLE 240200 AAB
TAFFDY
TAF AMD
KFDY 240243Z 2403/2424 10004KT 1/2SM FG OVC002
     FM240500 07007KT 2SM -RA BR OVC004
     FM240900 07010KT 3SM BR OVC004
     FM241500 14015G25KT P6SM OVC008
     FM241900 18020G30KT P6SM -SHRA OVC012
     FM242130 25025G40KT P6SM OVC015=

USA.gov is the U.S. government's official web portal to all federal, state and local government web resources and services.